createdAt,value
2022-08-21T00:04:55.946Z,16.50
2022-08-21T00:10:26.758Z,16.50
2022-08-21T00:15:55.416Z,16.50
2022-08-21T00:21:23.460Z,16.40
2022-08-21T00:26:52.320Z,16.40
2022-08-21T00:32:27.147Z,16.30
2022-08-21T00:37:54.968Z,16.30
2022-08-21T00:43:30.641Z,16.20
2022-08-21T00:48:59.280Z,16.20
2022-08-21T00:54:31.302Z,16.10
2022-08-21T01:00:05.429Z,16.10
2022-08-21T01:05:34.232Z,16.00
2022-08-21T01:11:03.264Z,15.90
2022-08-21T01:16:32.017Z,15.90
2022-08-21T01:22:00.772Z,15.90
2022-08-21T01:27:28.909Z,15.80
2022-08-21T01:32:57.748Z,15.80
2022-08-21T01:38:26.483Z,15.70
2022-08-21T01:43:55.762Z,15.60
2022-08-21T01:49:24.184Z,15.60
2022-08-21T01:54:55.466Z,15.50
2022-08-21T02:00:23.977Z,15.50
2022-08-21T02:05:52.275Z,15.40
2022-08-21T02:11:20.887Z,15.40
2022-08-21T02:16:49.125Z,15.30
2022-08-21T02:22:17.487Z,15.30
2022-08-21T02:27:48.655Z,15.30
2022-08-21T02:33:17.505Z,15.20
2022-08-21T02:38:45.879Z,15.20
2022-08-21T02:44:14.097Z,15.20
2022-08-21T02:49:41.803Z,15.10
2022-08-21T02:55:09.779Z,15.10
2022-08-21T03:00:38.907Z,15.10
2022-08-21T03:06:09.238Z,15.00
2022-08-21T03:11:37.209Z,15.00
2022-08-21T03:17:05.763Z,15.00
2022-08-21T03:22:33.560Z,15.00
2022-08-21T03:28:03.621Z,14.90
2022-08-21T03:33:33.930Z,14.90
2022-08-21T03:39:02.212Z,14.90
2022-08-21T03:44:31.304Z,14.80
2022-08-21T03:50:00.503Z,14.80
2022-08-21T03:55:29.426Z,14.80
2022-08-21T04:01:01.101Z,14.80
2022-08-21T04:06:29.289Z,14.70
2022-08-21T04:11:57.950Z,14.70
2022-08-21T04:17:26.210Z,14.70
2022-08-21T04:22:54.686Z,14.60
2022-08-21T04:28:28.783Z,14.60
2022-08-21T04:33:57.933Z,14.60
2022-08-21T04:39:29.711Z,14.50
2022-08-21T04:44:58.598Z,14.50
2022-08-21T04:50:42.848Z,14.50
2022-08-21T04:56:38.051Z,14.50
2022-08-21T05:02:08.349Z,14.50
2022-08-21T05:07:42.725Z,14.60
2022-08-21T05:13:12.230Z,14.70
2022-08-21T05:18:39.991Z,14.80
2022-08-21T05:24:08.583Z,15.00
2022-08-21T05:29:36.389Z,15.10
2022-08-21T05:35:08.916Z,15.30
2022-08-21T05:40:37.797Z,15.50
2022-08-21T05:46:07.695Z,15.70
2022-08-21T05:51:38.900Z,15.90
2022-08-21T05:57:06.781Z,16.10
2022-08-21T06:02:35.175Z,16.20
2022-08-21T06:08:03.206Z,16.30
2022-08-21T06:13:31.614Z,16.50
2022-08-21T06:19:02.845Z,16.70
2022-08-21T06:24:34.339Z,16.80
2022-08-21T06:30:03.187Z,17.00
2022-08-21T06:35:31.322Z,17.20
2022-08-21T06:40:59.577Z,17.30
2022-08-21T06:46:31.169Z,17.50
2022-08-21T06:51:59.414Z,17.70
2022-08-21T06:57:27.720Z,17.90
2022-08-21T07:02:55.641Z,18.10
2022-08-21T07:08:24.116Z,18.20
2022-08-21T07:13:53.780Z,18.40
2022-08-21T07:19:21.677Z,18.60
2022-08-21T07:24:49.582Z,18.80
2022-08-21T07:30:17.512Z,19.00
2022-08-21T07:35:45.632Z,19.20
2022-08-21T07:41:27.329Z,19.30
2022-08-21T07:46:55.119Z,19.40
2022-08-21T07:52:23.022Z,19.60
2022-08-21T07:57:51.356Z,19.70
2022-08-21T08:03:22.554Z,19.90
2022-08-21T08:08:57.096Z,20.10
2022-08-21T08:14:31.481Z,20.30
2022-08-21T08:20:03.587Z,20.30
2022-08-21T08:25:36.904Z,20.30
2022-08-21T08:31:05.908Z,20.50
2022-08-21T08:36:37.679Z,20.70
2022-08-21T08:42:40.518Z,20.80
2022-08-21T08:48:14.860Z,20.80
2022-08-21T08:53:54.714Z,21.10
2022-08-21T08:59:28.928Z,21.20
2022-08-21T09:05:00.366Z,21.40
2022-08-21T09:11:04.291Z,21.70
2022-08-21T09:17:00.566Z,21.90
2022-08-21T09:22:40.570Z,22.10
2022-08-21T09:28:15.332Z,22.20
2022-08-21T09:33:43.260Z,22.40
2022-08-21T09:39:14.340Z,22.70
2022-08-21T09:44:45.119Z,22.80
2022-08-21T09:50:18.831Z,22.50
2022-08-21T09:56:23.350Z,22.90
2022-08-21T10:01:54.917Z,23.40
2022-08-21T10:07:25.888Z,23.60
2022-08-21T10:13:26.427Z,23.30
2022-08-21T10:19:32.231Z,23.10
2022-08-21T10:25:22.652Z,22.90
2022-08-21T10:31:59.110Z,22.90
2022-08-21T10:38:09.185Z,23.40
2022-08-21T10:44:08.357Z,23.20
2022-08-21T10:49:46.537Z,23.00
2022-08-21T10:55:22.995Z,22.70
2022-08-21T11:00:58.000Z,22.50
2022-08-21T11:06:33.209Z,23.00
2022-08-21T11:12:27.298Z,23.60
2022-08-21T11:18:31.042Z,24.00
2022-08-21T11:24:35.036Z,24.40
2022-08-21T11:30:05.603Z,24.00
2022-08-21T11:35:37.210Z,23.60
2022-08-21T11:41:20.163Z,23.50
2022-08-21T11:47:29.156Z,23.60
2022-08-21T11:53:36.966Z,23.30
2022-08-21T11:59:40.964Z,23.90
2022-08-21T12:05:22.830Z,24.30
2022-08-21T12:11:11.495Z,24.80
2022-08-21T12:16:43.870Z,25.20
2022-08-21T12:22:14.954Z,25.40
2022-08-21T12:27:52.518Z,25.60
2022-08-21T12:33:25.859Z,25.70
2022-08-21T12:39:07.123Z,25.10
2022-08-21T12:44:45.297Z,24.60
2022-08-21T12:50:23.039Z,24.60
2022-08-21T12:55:50.933Z,24.80
2022-08-21T13:01:37.056Z,24.50
2022-08-21T13:07:22.779Z,24.30
2022-08-21T13:12:51.149Z,24.40
2022-08-21T13:18:32.901Z,24.50
2022-08-21T13:24:41.446Z,24.40
2022-08-21T13:30:21.783Z,24.30
2022-08-21T13:36:27.157Z,24.20
2022-08-21T13:42:02.268Z,24.00
2022-08-21T13:47:33.716Z,24.00
2022-08-21T13:53:09.344Z,24.20
2022-08-21T13:58:48.100Z,24.60
2022-08-21T14:04:28.700Z,24.90
2022-08-21T14:09:57.030Z,25.60
2022-08-21T14:15:34.427Z,26.20
2022-08-21T14:21:08.407Z,27.00
2022-08-21T14:26:51.816Z,27.50
2022-08-21T14:32:32.910Z,28.10
2022-08-21T14:38:03.944Z,29.90
2022-08-21T14:43:32.834Z,32.50
2022-08-21T14:49:00.667Z,34.10
2022-08-21T14:54:32.410Z,32.50
2022-08-21T15:00:02.047Z,31.40
2022-08-21T15:05:33.724Z,29.90
2022-08-21T15:11:13.590Z,28.50
2022-08-21T15:16:43.244Z,27.50
2022-08-21T15:22:15.372Z,26.90
2022-08-21T15:27:46.727Z,26.40
2022-08-21T15:33:15.510Z,25.90
2022-08-21T15:38:44.965Z,25.70
2022-08-21T15:44:14.503Z,25.50
2022-08-21T15:49:46.023Z,25.30
2022-08-21T15:55:13.995Z,25.10
2022-08-21T16:00:44.914Z,24.90
2022-08-21T16:06:14.968Z,24.70
2022-08-21T16:11:44.471Z,24.60
2022-08-21T16:17:12.703Z,24.60
2022-08-21T16:22:44.906Z,24.50
2022-08-21T16:28:18.516Z,24.30
2022-08-21T16:33:53.480Z,24.20
2022-08-21T16:39:25.155Z,24.10
2022-08-21T16:44:55.669Z,24.10
2022-08-21T16:50:25.848Z,24.00
2022-08-21T16:55:54.728Z,23.90
2022-08-21T17:01:28.390Z,23.80
2022-08-21T17:06:56.250Z,23.70
2022-08-21T17:12:24.426Z,23.50
2022-08-21T17:17:52.855Z,23.40
2022-08-21T17:23:21.760Z,23.30
2022-08-21T17:28:54.210Z,23.10
2022-08-21T17:34:23.247Z,23.00
2022-08-21T17:39:57.752Z,23.00
2022-08-21T17:45:26.254Z,22.90
2022-08-21T17:50:54.453Z,22.70
2022-08-21T17:56:31.921Z,22.60
2022-08-21T18:02:01.813Z,22.50
2022-08-21T18:07:32.643Z,22.40
2022-08-21T18:13:06.548Z,22.20
2022-08-21T18:18:42.945Z,22.00
2022-08-21T18:24:10.926Z,21.90
2022-08-21T18:29:43.891Z,21.80
2022-08-21T18:35:17.089Z,21.60
2022-08-21T18:40:55.129Z,21.40
2022-08-21T18:46:24.097Z,21.20
2022-08-21T18:51:52.045Z,21.10
2022-08-21T19:08:56.849Z,20.50
2022-08-21T19:14:24.984Z,20.30
2022-08-21T19:20:01.933Z,20.10
2022-08-21T19:25:33.667Z,20.00
2022-08-21T19:31:32.580Z,19.80
2022-08-21T19:37:01.112Z,19.70
2022-08-21T19:42:31.042Z,19.50
2022-08-21T19:47:59.014Z,19.30
2022-08-21T19:53:26.897Z,19.20
2022-08-21T19:58:58.585Z,19.10
2022-08-21T20:10:14.849Z,18.80
2022-08-21T20:15:46.630Z,18.70
2022-08-21T20:21:15.075Z,18.50
2022-08-21T20:26:49.244Z,18.40
2022-08-21T20:32:18.204Z,18.30
2022-08-21T20:37:46.534Z,18.20
2022-08-21T20:43:28.725Z,18.00
2022-08-21T20:48:57.912Z,17.90
2022-08-21T20:54:45.728Z,17.80
2022-08-21T21:00:17.202Z,17.70
2022-08-21T21:06:07.529Z,17.60
2022-08-21T21:11:55.517Z,17.50
2022-08-21T21:17:35.473Z,17.40
2022-08-21T21:23:21.759Z,17.30
2022-08-21T21:29:29.928Z,17.20
2022-08-21T21:34:58.220Z,17.20
2022-08-21T21:40:30.697Z,17.10
2022-08-21T21:46:37.318Z,17.00
2022-08-21T21:52:54.657Z,16.90
2022-08-21T21:58:54.071Z,16.80
2022-08-21T22:04:38.994Z,16.70
2022-08-21T22:10:32.883Z,16.60
2022-08-21T22:16:11.829Z,16.60
2022-08-21T22:21:47.407Z,16.50
2022-08-21T22:27:27.627Z,16.40
2022-08-21T22:33:00.176Z,16.30
2022-08-21T22:38:37.079Z,16.20
2022-08-21T22:44:18.272Z,16.10
2022-08-21T22:49:50.316Z,16.00
2022-08-21T22:55:43.762Z,16.00
2022-08-21T23:01:28.317Z,15.90
2022-08-21T23:07:02.765Z,15.80
2022-08-21T23:12:43.843Z,15.80
2022-08-21T23:19:03.977Z,15.70
2022-08-21T23:24:33.940Z,15.70
2022-08-21T23:30:22.741Z,15.70
2022-08-21T23:36:26.200Z,15.60
2022-08-21T23:42:23.045Z,15.60
2022-08-21T23:48:29.335Z,15.50
2022-08-21T23:54:09.294Z,15.50
2022-08-21T23:59:58.327Z,15.40
